Time;durP1;ratioP1;P1;durP2;ratioP2;P2;SDS_P1;SDS_P2;PMS_P1;PMS_P2;Temp;Humidity;BMP_temperature;BMP_pressure;BME280_temperature;BME280_humidity;BME280_pressure;Samples;Min_cycle;Max_cycle;Signal;HPM_P1;HPM_P2
2022/07/14 00:01:39;;;;;;;7.80;2.20;;;;;;;14.80;100.00;102125.63;4968821;28;20503;-80
2022/07/14 00:04:07;;;;;;;9.38;2.55;;;;;;;14.77;100.00;102120.31;4979548;28;20050;-81
2022/07/14 00:06:36;;;;;;;6.32;2.30;;;;;;;14.75;100.00;102127.38;4991876;28;20080;-81
2022/07/14 00:09:05;;;;;;;9.50;2.45;;;;;;;14.72;100.00;102128.22;4976484;28;20053;-79
2022/07/14 00:11:34;;;;;;;11.23;2.60;;;;;;;14.70;100.00;102121.16;4939100;28;20053;-79
2022/07/14 00:14:02;;;;;;;8.95;2.58;;;;;;;14.67;100.00;102132.63;4982414;28;20038;-80
2022/07/14 00:16:30;;;;;;;6.95;2.10;;;;;;;14.65;100.00;102128.19;5004141;28;20534;-80
2022/07/14 00:18:59;;;;;;;7.85;2.60;;;;;;;14.61;100.00;102124.63;4985187;28;20061;-80
2022/07/14 00:21:27;;;;;;;7.18;2.72;;;;;;;14.60;100.00;102125.50;4988032;28;20064;-82
2022/07/14 00:23:56;;;;;;;7.05;2.25;;;;;;;14.58;100.00;102129.91;5006947;28;20057;-80
2022/07/14 00:26:25;;;;;;;9.43;3.08;;;;;;;14.56;100.00;102129.00;4950364;28;20049;-80
2022/07/14 00:28:54;;;;;;;9.68;2.63;;;;;;;14.54;100.00;102128.09;4988107;28;20050;-80
2022/07/14 00:31:23;;;;;;;10.05;3.15;;;;;;;14.50;100.00;102119.22;4987977;28;20172;-81
2022/07/14 00:33:51;;;;;;;7.85;2.83;;;;;;;14.48;100.00;102128.94;4984805;28;20042;-80
2022/07/14 00:36:19;;;;;;;9.68;2.80;;;;;;;14.46;100.00;102119.16;4992113;28;20153;-80
2022/07/14 00:38:49;;;;;;;9.15;2.60;;;;;;;14.43;100.00;102117.41;4989467;28;20038;-80
2022/07/14 00:41:18;;;;;;;11.20;2.42;;;;;;;14.42;100.00;102123.56;4950366;28;20045;-80
2022/07/14 00:43:46;;;;;;;11.93;2.45;;;;;;;14.39;100.00;102119.13;4978670;28;20033;-80
2022/07/14 00:46:15;;;;;;;16.55;2.42;;;;;;;14.38;100.00;102121.78;4980162;28;20372;-80
2022/07/14 00:48:44;;;;;;;11.98;2.42;;;;;;;14.35;100.00;102117.34;4970434;28;20050;-81
2022/07/14 00:51:12;;;;;;;6.65;2.05;;;;;;;14.33;100.00;102112.88;4975384;28;20046;-81
2022/07/14 00:53:42;;;;;;;6.20;2.30;;;;;;;14.32;100.00;102112.00;4988680;28;20047;-80
2022/07/14 00:56:11;;;;;;;8.52;2.30;;;;;;;14.30;100.00;102107.56;4982451;28;20068;-80
2022/07/14 00:58:39;;;;;;;7.97;2.88;;;;;;;14.27;100.00;102116.38;4977607;28;20053;-81
2022/07/14 01:01:07;;;;;;;7.55;2.63;;;;;;;14.21;100.00;102111.94;4987910;28;20042;-80
2022/07/14 01:03:37;;;;;;;6.50;2.35;;;;;;;14.19;100.00;102102.19;4992148;28;20042;-80
2022/07/14 01:06:07;;;;;;;9.30;2.83;;;;;;;14.14;100.00;102111.84;4995039;28;20050;-80
2022/07/14 01:08:35;;;;;;;8.63;2.50;;;;;;;14.10;100.00;102116.25;4971853;28;20428;-80
2022/07/14 01:11:08;;;;;;;8.25;2.85;;;;;;;14.07;100.00;102112.69;4990377;28;20046;-81
2022/07/14 01:13:37;;;;;;;9.68;2.72;;;;;;;14.03;100.00;102103.81;4959369;28;20049;-79
2022/07/14 01:16:06;;;;;;;5.95;2.38;;;;;;;14.00;100.00;102104.66;4987975;28;20499;-80
2022/07/14 01:18:36;;;;;;;10.63;3.88;;;;;;;13.98;100.00;102098.47;4979418;28;20550;-79
2022/07/14 01:21:07;;;;;;;11.13;3.50;;;;;;;13.95;100.00;102095.81;4992880;28;20038;-79
2022/07/14 01:23:36;;;;;;;7.57;2.90;;;;;;;13.92;100.00;102095.75;4976131;28;20050;-80
2022/07/14 01:26:05;;;;;;;11.07;3.25;;;;;;;13.90;100.00;102094.88;4979831;28;20516;-80
2022/07/14 01:28:33;;;;;;;9.02;3.40;;;;;;;13.88;100.00;102099.25;4936507;28;20834;-80
2022/07/14 01:31:03;;;;;;;11.95;2.63;;;;;;;13.86;100.00;102100.13;4951985;28;20049;-80
2022/07/14 01:33:33;;;;;;;15.93;3.35;;;;;;;13.81;100.00;102100.94;4974793;28;20065;-80
2022/07/14 01:36:02;;;;;;;13.38;4.32;;;;;;;13.78;100.00;102097.38;4951324;28;20383;-80
2022/07/14 01:38:31;;;;;;;10.15;3.65;;;;;;;13.75;100.00;102092.06;4972063;28;20373;-80
2022/07/14 01:40:59;;;;;;;6.47;3.33;;;;;;;13.73;100.00;102096.47;4972498;28;20053;-81
2022/07/14 01:43:32;;;;;;;9.75;3.22;;;;;;;13.70;100.00;102096.44;4955497;28;20054;-80
2022/07/14 01:46:03;;;;;;;10.88;3.15;;;;;;;13.64;100.00;102098.13;4967168;28;20077;-80
2022/07/14 01:48:32;;;;;;;8.50;3.42;;;;;;;13.61;100.00;102084.88;4970774;28;20038;-80
2022/07/14 01:51:00;;;;;;;9.45;3.50;;;;;;;13.59;100.00;102091.00;4990679;28;20056;-80
2022/07/14 01:53:30;;;;;;;17.17;3.43;;;;;;;13.55;100.00;102095.38;4959196;28;20052;-79
2022/07/14 01:56:00;;;;;;;14.25;3.33;;;;;;;13.51;100.00;102098.00;4974184;28;20298;-81
2022/07/14 01:58:30;;;;;;;;;;;;;;;13.49;100.00;102097.09;4986060;28;20720;-80
2022/07/14 02:03:46;;;;;;;9.35;3.88;;;;;;;13.41;100.00;102089.94;4990805;28;20057;-81
2022/07/14 02:06:17;;;;;;;;;;;;;;;13.39;100.00;102090.81;4957942;28;20045;-81
2022/07/14 02:08:45;;;;;;;11.52;3.55;;;;;;;13.35;100.00;102091.66;4952324;28;20263;-81
2022/07/14 02:14:03;;;;;;;9.57;3.58;;;;;;;13.28;100.00;102095.94;4986334;28;20037;-82
2022/07/14 02:16:36;;;;;;;14.20;3.38;;;;;;;13.25;100.00;102095.88;4985756;28;20046;-80
2022/07/14 02:19:04;;;;;;;14.55;3.67;;;;;;;13.23;100.00;102089.69;4994468;28;20046;-81
2022/07/14 02:21:34;;;;;;;9.10;3.78;;;;;;;13.20;100.00;102098.50;5013594;28;20041;-81
2022/07/14 02:24:05;;;;;;;8.70;3.28;;;;;;;13.19;100.00;102101.09;4991863;28;20042;-81
2022/07/14 02:26:35;;;;;;;8.32;3.17;;;;;;;13.17;100.00;102097.56;4978109;28;20270;-80
2022/07/14 02:29:07;;;;;;;12.60;3.53;;;;;;;13.14;100.00;102098.41;4998753;28;20046;-80
2022/07/14 02:31:38;;;;;;;11.23;2.85;;;;;;;13.12;100.00;102099.25;4985751;28;20053;-81
2022/07/14 02:34:06;;;;;;;9.02;3.28;;;;;;;13.10;100.00;102096.63;4995533;28;20061;-80
2022/07/14 02:36:35;;;;;;;8.65;3.40;;;;;;;13.10;100.00;102096.63;4985344;28;20034;-79
2022/07/14 02:39:05;;;;;;;9.45;3.40;;;;;;;13.09;100.00;102097.47;4979309;28;20038;-79
2022/07/14 02:41:34;;;;;;;12.57;2.67;;;;;;;13.09;100.00;102091.28;4973739;28;20613;-79
2022/07/14 02:44:03;;;;;;;8.82;2.75;;;;;;;13.06;100.00;102100.06;4962114;28;20046;-80
2022/07/14 02:46:32;;;;;;;9.57;3.25;;;;;;;13.04;100.00;102101.81;4957681;28;20053;-81
2022/07/14 02:49:00;;;;;;;11.55;3.40;;;;;;;13.02;100.00;102100.91;4964793;28;20047;-80
2022/07/14 02:51:30;;;;;;;12.60;2.90;;;;;;;13.01;100.00;102093.84;4981375;28;20161;-80
2022/07/14 02:53:59;;;;;;;12.60;3.15;;;;;;;12.99;100.00;102101.75;4996870;28;20515;-80
2022/07/14 02:56:29;;;;;;;9.60;3.17;;;;;;;12.97;100.00;102095.56;4954242;28;20620;-80
2022/07/14 02:58:58;;;;;;;7.30;2.88;;;;;;;12.98;100.00;102093.78;4991920;28;20292;-79
2022/07/14 03:01:29;;;;;;;12.50;3.53;;;;;;;12.95;100.00;102094.66;4925840;28;20046;-81
2022/07/14 03:04:00;;;;;;;8.18;2.78;;;;;;;12.95;100.00;102091.09;4979581;28;20459;-80
2022/07/14 03:06:28;;;;;;;5.97;3.15;;;;;;;12.95;100.00;102088.44;4986720;28;20252;-82
2022/07/14 03:08:57;;;;;;;9.07;3.35;;;;;;;12.95;100.00;102091.09;4983962;28;20415;-82
2022/07/14 03:11:27;;;;;;;14.85;3.90;;;;;;;12.93;100.00;102091.09;5002070;28;20302;-81
2022/07/14 03:13:56;;;;;;;10.98;3.42;;;;;;;12.93;100.00;102082.25;4979042;28;20064;-80
2022/07/14 03:16:25;;;;;;;8.55;3.33;;;;;;;12.91;100.00;102092.84;4957788;28;20160;-80
2022/07/14 03:18:59;;;;;;;7.43;3.28;;;;;;;12.88;100.00;102101.59;4981210;28;20049;-80
2022/07/14 03:21:27;;;;;;;6.88;3.17;;;;;;;12.86;100.00;102098.03;4998714;28;20408;-80
2022/07/14 03:23:59;;;;;;;10.02;3.03;;;;;;;12.84;100.00;102094.50;4963235;28;20034;-80
2022/07/14 03:26:34;;;;;;;6.70;2.72;;;;;;;12.83;100.00;102090.06;4992684;28;20592;-80
2022/07/14 03:29:03;;;;;;;6.28;2.63;;;;;;;12.81;100.00;102093.56;4969843;28;20515;-80
2022/07/14 03:31:33;;;;;;;8.43;3.10;;;;;;;12.80;100.00;102091.81;4991006;28;20038;-80
2022/07/14 03:34:02;;;;;;;9.75;3.05;;;;;;;12.80;100.00;102097.97;4943666;28;20050;-80
2022/07/14 03:36:32;;;;;;;;;;;;;;;12.80;100.00;102097.97;4976858;28;20042;-80
2022/07/14 03:39:08;;;;;;;8.68;2.88;;;;;;;12.79;100.00;102097.94;4989193;28;19928;-80
2022/07/14 03:41:37;;;;;;;8.00;3.33;;;;;;;12.78;100.00;102096.16;4990274;28;20042;-80
2022/07/14 03:44:07;;;;;;;8.27;3.30;;;;;;;12.79;100.00;102100.59;4972332;28;20508;-79
2022/07/14 03:46:35;;;;;;;5.00;3.00;;;;;;;12.80;100.00;102097.09;4979013;28;20542;-79
2022/07/14 03:49:12;;;;;;;10.63;3.33;;;;;;;12.79;100.00;102106.75;4949014;28;20487;-80
2022/07/14 03:51:42;;;;;;;11.75;4.82;;;;;;;12.81;100.00;102099.72;4963117;28;20056;-80
2022/07/14 03:54:18;;;;;;;10.32;4.00;;;;;;;12.81;100.00;102110.31;4991832;28;20231;-80
2022/07/14 03:56:46;;;;;;;8.68;3.55;;;;;;;12.83;100.00;102102.41;4974663;28;20204;-79
2022/07/14 03:59:18;;;;;;;6.07;2.97;;;;;;;12.85;100.00;102106.88;4987294;28;20052;-79
2022/07/14 04:01:47;;;;;;;9.35;3.50;;;;;;;12.87;100.00;102102.47;4977914;28;20038;-79
2022/07/14 04:04:19;;;;;;;9.68;4.03;;;;;;;12.90;100.00;102104.28;4939591;28;20046;-80
2022/07/14 04:06:47;;;;;;;6.47;3.58;;;;;;;12.94;100.00;102100.78;5008259;28;20512;-80
2022/07/14 04:09:16;;;;;;;12.55;3.30;;;;;;;12.98;100.00;102114.97;4964141;28;20055;-80
2022/07/14 04:11:52;;;;;;;10.52;3.13;;;;;;;13.02;100.00;102100.91;4960117;28;20034;-79
2022/07/14 04:14:21;;;;;;;10.20;3.80;;;;;;;13.08;100.00;102103.66;4973210;28;20030;-81
2022/07/14 04:16:52;;;;;;;10.63;3.10;;;;;;;13.14;100.00;102100.19;4981054;28;20043;-81
2022/07/14 04:19:21;;;;;;;8.77;3.73;;;;;;;13.26;100.00;102095.03;4960894;28;21493;-80
2022/07/14 04:21:51;;;;;;;8.27;3.10;;;;;;;13.79;100.00;102092.09;4995353;28;20053;-81
2022/07/14 04:24:41;;;;;;;8.15;3.50;;;;;;;14.75;100.00;102095.53;4990716;28;20038;-80
2022/07/14 04:27:10;;;;;;;5.97;2.60;;;;;;;15.57;100.00;102092.31;4972953;28;20054;-80
2022/07/14 04:29:39;;;;;;;8.35;2.63;;;;;;;16.42;100.00;102088.84;4971007;28;20505;-80
2022/07/14 04:32:08;;;;;;;7.63;2.75;;;;;;;17.22;100.00;102091.31;4977182;28;20056;-81
2022/07/14 04:34:37;;;;;;;5.60;2.17;;;;;;;17.96;100.00;102082.88;4941214;28;20316;-80
2022/07/14 04:37:06;;;;;;;3.97;1.92;;;;;;;18.66;100.00;102084.91;4990145;28;20046;-81
2022/07/14 04:39:38;;;;;;;5.00;2.47;;;;;;;19.33;100.00;102093.03;4961231;28;20053;-80
2022/07/14 04:42:06;;;;;;;7.65;2.22;;;;;;;19.91;100.00;102095.81;4980750;28;20047;-80
2022/07/14 04:44:37;;;;;;;5.47;1.65;;;;;;;20.51;100.00;102092.06;4944428;28;20052;-80
2022/07/14 04:47:06;;;;;;;5.40;1.58;;;;;;;21.09;100.00;102103.50;4974859;28;20038;-80
2022/07/14 04:52:24;;;;;;;4.30;1.73;;;;;;;22.15;93.51;102091.22;4966347;28;20034;-80
2022/07/14 04:55:06;;;;;;;5.53;1.48;;;;;;;22.57;90.73;102096.44;4975769;28;20042;-81
2022/07/14 04:58:07;;;;;;;;;;;;;;;23.11;84.73;102089.53;4989915;28;20046;-81
2022/07/14 05:00:36;;;;;;;4.43;1.48;;;;;;;23.45;88.82;102088.50;4982195;28;19948;-80
2022/07/14 05:03:04;;;;;;;3.80;1.27;;;;;;;23.72;86.49;102086.78;4976789;28;20472;-81
2022/07/14 05:05:33;;;;;;;7.25;1.63;;;;;;;24.11;84.12;102091.78;4962126;28;25779;-79
2022/07/14 05:08:02;;;;;;;5.22;1.77;;;;;;;24.44;82.43;102085.28;4975546;28;20525;-80
2022/07/14 05:10:39;;;;;;;5.47;1.60;;;;;;;24.64;79.68;102088.19;4991561;28;20046;-80
2022/07/14 05:13:08;;;;;;;4.32;1.30;;;;;;;24.83;77.22;102084.81;5004602;28;20046;-80
2022/07/14 05:15:37;;;;;;;3.80;1.40;;;;;;;25.04;75.98;102085.81;4966783;28;20046;-80
2022/07/14 05:18:06;;;;;;;6.38;1.52;;;;;;;25.25;72.74;102076.91;4982676;28;20039;-79
2022/07/14 05:20:34;;;;;;;3.33;1.60;;;;;;;25.43;72.42;102083.44;4976172;28;20332;-81
2022/07/14 05:23:03;;;;;;;1.98;1.10;;;;;;;25.71;71.45;102081.41;4956068;28;20042;-80
2022/07/14 05:25:31;;;;;;;5.55;1.83;;;;;;;25.92;69.61;102094.09;4991000;28;20239;-81
2022/07/14 05:28:02;;;;;;;3.47;1.20;;;;;;;26.03;66.88;102075.63;4976803;28;20407;-80
2022/07/14 05:30:35;;;;;;;7.60;1.42;;;;;;;26.25;67.01;102071.97;4957189;28;20453;-80
2022/07/14 05:33:04;;;;;;;4.05;0.98;;;;;;;26.44;65.61;102067.50;4974891;28;20039;-80
2022/07/14 05:35:38;;;;;;;4.78;1.33;;;;;;;26.64;64.63;102068.50;4990160;28;20053;-80
2022/07/14 05:38:08;;;;;;;4.03;1.77;;;;;;;26.78;63.46;102071.44;4934951;28;20053;-81
2022/07/14 05:40:38;;;;;;;3.33;1.10;;;;;;;26.95;61.07;102077.91;4988976;28;20045;-81
2022/07/14 05:43:07;;;;;;;3.88;1.02;;;;;;;27.25;61.22;102072.00;4976603;28;20042;-81
2022/07/14 05:45:35;;;;;;;6.95;1.40;;;;;;;27.55;59.40;102072.38;4976330;28;20041;-81
2022/07/14 05:48:05;;;;;;;3.58;1.20;;;;;;;27.49;57.29;102067.28;4992219;28;20054;-81
2022/07/14 05:50:35;;;;;;;1.93;1.20;;;;;;;27.41;56.89;102060.41;4966135;28;20046;-79
2022/07/14 05:53:04;;;;;;;2.85;0.90;;;;;;;27.15;56.68;102061.63;4911813;28;20320;-81
2022/07/14 05:55:33;;;;;;;4.15;1.20;;;;;;;26.70;56.51;102079.03;4983666;28;20042;-79
2022/07/14 05:58:01;;;;;;;6.10;1.30;;;;;;;26.36;55.63;102085.03;4985786;28;20050;-78
2022/07/14 06:00:30;;;;;;;3.28;1.15;;;;;;;26.08;55.86;102077.22;4982693;28;20037;-78
2022/07/14 06:02:59;;;;;;;3.67;0.93;;;;;;;25.63;55.56;102073.63;4960219;28;20062;-78
2022/07/14 06:05:34;;;;;;;7.25;1.45;;;;;;;25.08;55.87;102082.06;4950994;28;20054;-80
2022/07/14 06:08:03;;;;;;;4.47;1.10;;;;;;;24.63;56.38;102080.16;4962389;28;20164;-78
2022/07/14 06:10:32;;;;;;;2.70;1.33;;;;;;;24.20;57.17;102078.97;4909419;28;20043;-79
2022/07/14 06:13:04;;;;;;;5.38;1.67;;;;;;;23.79;57.86;102086.59;4930882;28;20174;-80
2022/07/14 06:15:41;;;;;;;5.13;1.23;;;;;;;23.28;59.52;102089.03;4971006;28;20034;-79
2022/07/14 06:18:11;;;;;;;6.53;1.27;;;;;;;22.85;60.84;102100.13;4949960;28;20164;-79
2022/07/14 06:20:41;;;;;;;;;;;;;;;22.60;63.63;102087.38;4965564;28;20377;-79
2022/07/14 06:23:10;;;;;;;5.05;1.40;;;;;;;22.45;64.16;102077.94;4965988;28;20049;-79
2022/07/14 06:25:39;;;;;;;4.50;1.42;;;;;;;22.50;64.71;102076.03;4935305;28;20053;-79
2022/07/14 06:28:09;;;;;;;3.10;1.08;;;;;;;22.51;65.39;102083.16;4928873;28;20046;-77
2022/07/14 06:30:37;;;;;;;5.95;1.55;;;;;;;22.65;65.99;102076.53;4956812;28;20050;-79
2022/07/14 06:33:07;;;;;;;4.07;1.30;;;;;;;22.96;65.79;102080.09;4949497;29;20051;-79
2022/07/14 06:35:40;;;;;;;4.95;1.23;;;;;;;22.98;63.67;102067.47;4934345;28;20055;-78
2022/07/14 06:38:29;;;;;;;2.65;1.08;;;;;;;22.83;63.02;102059.88;4968268;28;20031;-79
2022/07/14 06:40:58;;;;;;;3.10;0.82;;;;;;;22.71;63.11;102061.09;4942692;28;23006;-80
2022/07/14 06:43:32;;;;;;;5.05;1.00;;;;;;;22.60;63.44;102067.72;4925133;28;20046;-79
2022/07/14 06:46:07;;;;;;;4.13;0.88;;;;;;;22.34;63.89;102054.09;4965003;28;20043;-80
2022/07/14 06:48:36;;;;;;;2.42;0.98;;;;;;;22.04;63.93;102065.56;4970762;28;20374;-79
2022/07/14 06:51:06;;;;;;;3.75;0.82;;;;;;;21.74;65.37;102068.13;4956038;28;20055;-79
2022/07/14 06:53:37;;;;;;;3.13;0.90;;;;;;;21.53;65.80;102074.84;4957710;28;20047;-79
2022/07/14 06:56:05;;;;;;;5.25;0.98;;;;;;;21.33;66.92;102073.47;4966548;28;20043;-79
2022/07/14 06:58:34;;;;;;;2.85;0.98;;;;;;;21.15;67.29;102076.53;4910930;28;20051;-78
2022/07/14 07:01:03;;;;;;;4.90;1.35;;;;;;;20.92;67.66;102067.19;4959510;28;20051;-80
2022/07/14 07:03:33;;;;;;;;;;;;;;;20.75;70.28;102077.38;4987118;28;20050;-79
2022/07/14 07:08:48;;;;;;;1.35;0.70;;;;;;;20.55;69.77;102072.38;4973259;28;20362;-78
2022/07/14 07:11:17;;;;;;;3.70;0.98;;;;;;;20.55;70.58;102067.91;4948849;28;20054;-81
2022/07/14 07:13:45;;;;;;;3.63;0.98;;;;;;;20.58;71.43;102075.88;4964252;28;20469;-79
2022/07/14 07:16:14;;;;;;;3.22;1.15;;;;;;;20.59;71.91;102068.75;4973443;28;20403;-81
2022/07/14 07:18:42;;;;;;;5.90;1.33;;;;;;;20.66;71.72;102066.84;4987182;28;20179;-80
2022/07/14 07:21:14;;;;;;;2.78;1.15;;;;;;;20.67;71.39;102063.25;4996592;28;20387;-79
2022/07/14 07:23:46;;;;;;;2.28;0.98;;;;;;;20.61;71.26;102062.47;4978837;28;20037;-80
2022/07/14 07:26:16;;;;;;;4.93;1.20;;;;;;;20.57;71.67;102058.06;5000869;28;20054;-79
2022/07/14 07:28:44;;;;;;;3.70;1.13;;;;;;;20.42;71.82;102055.66;4978792;28;20539;-79
2022/07/14 07:31:13;;;;;;;2.90;0.77;;;;;;;20.20;72.06;102061.38;5003756;28;20459;-80
2022/07/14 07:33:42;;;;;;;4.22;1.05;;;;;;;20.11;72.81;102066.91;4973952;28;20071;-81
2022/07/14 07:36:13;;;;;;;5.32;1.08;;;;;;;20.05;74.36;102059.88;4986277;28;20499;-81
2022/07/14 07:38:41;;;;;;;7.00;1.00;;;;;;;20.13;74.91;102053.50;4997431;28;20046;-82
2022/07/14 07:41:10;;;;;;;4.03;0.98;;;;;;;20.32;75.01;102054.97;5000400;28;20046;-82
2022/07/14 07:43:38;;;;;;;1.02;0.60;;;;;;;20.42;74.05;102036.94;4970659;28;20046;-82
2022/07/14 07:46:07;;;;;;;2.10;0.90;;;;;;;20.31;73.45;102047.81;4978805;28;20050;-82
2022/07/14 07:48:36;;;;;;;1.20;0.65;;;;;;;20.15;73.20;102054.34;5007384;28;20054;-82
2022/07/14 07:51:05;;;;;;;1.98;0.90;;;;;;;20.05;73.63;102051.84;4973053;28;20061;-81
2022/07/14 07:53:37;;;;;;;1.77;0.80;;;;;;;20.02;74.45;102048.34;4994389;28;20038;-81
2022/07/14 07:56:06;;;;;;;2.80;1.17;;;;;;;20.00;75.42;102044.78;5007927;28;20049;-82
2022/07/14 07:58:35;;;;;;;2.45;0.90;;;;;;;20.05;76.47;102050.97;4973033;28;20061;-83
2022/07/14 08:01:04;;;;;;;2.85;0.70;;;;;;;20.07;76.84;102043.78;4949198;28;20054;-81
2022/07/14 08:03:33;;;;;;;2.38;0.80;;;;;;;20.17;76.88;102039.16;4975267;28;20042;-81
2022/07/14 08:06:12;;;;;;;3.00;0.85;;;;;;;20.19;75.35;102040.91;4982542;28;20053;-82
2022/07/14 08:09:01;;;;;;;1.35;0.70;;;;;;;20.10;74.43;102046.41;4987688;28;20539;-80
2022/07/14 08:11:29;;;;;;;3.13;0.90;;;;;;;20.12;74.63;102047.28;4936700;28;20038;-80
2022/07/14 08:13:58;;;;;;;0.90;0.70;;;;;;;20.15;74.06;102039.22;4948714;28;20076;-79
2022/07/14 08:16:27;;;;;;;1.23;0.77;;;;;;;20.15;73.39;102035.63;4995760;28;20491;-79
2022/07/14 08:18:57;;;;;;;4.53;1.10;;;;;;;20.16;73.21;102042.75;4976744;28;20155;-79
2022/07/14 08:21:25;;;;;;;3.03;0.73;;;;;;;20.24;72.46;102027.44;4992891;28;20506;-81
2022/07/14 08:23:54;;;;;;;0.75;0.60;;;;;;;20.34;72.04;102033.50;5007250;28;20061;-80
2022/07/14 08:26:22;;;;;;;4.95;1.77;;;;;;;20.37;73.02;102031.66;4963147;28;20039;-79
2022/07/14 08:28:51;;;;;;;2.67;0.80;;;;;;;20.35;72.78;102029.91;4978321;28;20137;-79
2022/07/14 08:31:19;;;;;;;1.80;0.50;;;;;;;20.22;71.93;102024.78;4951593;28;20038;-79
2022/07/14 08:33:51;;;;;;;4.25;0.82;;;;;;;20.12;72.46;102031.22;4966486;28;20045;-78
2022/07/14 08:36:19;;;;;;;6.30;1.27;;;;;;;20.19;72.33;102027.53;5002699;28;20022;-78
2022/07/14 08:38:51;;;;;;;0.85;0.60;;;;;;;20.23;71.33;102017.66;5002508;28;20069;-79
2022/07/14 08:41:20;;;;;;;2.10;0.80;;;;;;;20.32;71.42;102021.94;4972853;28;20038;-79
2022/07/14 08:43:49;;;;;;;0.63;0.60;;;;;;;20.44;70.97;102017.22;4988035;28;20343;-80
2022/07/14 08:46:19;;;;;;;0.60;0.50;;;;;;;20.50;70.04;102013.56;4952281;28;20042;-79
2022/07/14 08:48:47;;;;;;;0.75;0.55;;;;;;;20.49;70.39;102008.22;4961752;28;20034;-80
2022/07/14 08:51:20;;;;;;;2.20;0.68;;;;;;;20.48;71.62;102012.72;4977090;28;20042;-80
2022/07/14 08:53:49;;;;;;;;;;;;;;;20.44;71.13;102019.03;4991476;28;20042;-79
2022/07/14 08:56:19;;;;;;;3.72;0.82;;;;;;;20.40;72.15;102017.34;4983796;28;19921;-80
2022/07/14 08:58:48;;;;;;;3.22;0.80;;;;;;;20.37;73.06;102020.06;4984220;28;20038;-79
2022/07/14 09:01:17;;;;;;;2.53;0.70;;;;;;;20.35;73.72;102008.50;4965948;28;20046;-80
2022/07/14 09:03:46;;;;;;;5.43;1.00;;;;;;;20.26;74.11;102012.22;4969394;28;20293;-79
2022/07/14 09:06:52;;;;;;;0.82;0.73;;;;;;;20.22;74.75;102010.53;4989109;28;20034;-80
2022/07/14 09:09:27;;;;;;;2.88;0.70;;;;;;;20.19;74.56;102015.94;4990123;28;20050;-80
2022/07/14 09:12:10;;;;;;;2.38;0.98;;;;;;;20.23;74.65;102009.63;4984333;28;20057;-80
2022/07/14 09:17:51;;;;;;;2.60;0.75;;;;;;;20.43;74.45;102014.59;4985914;28;20050;-80
2022/07/14 09:20:21;;;;;;;1.80;0.88;;;;;;;20.42;74.79;102019.06;4983963;28;20057;-79
2022/07/14 09:22:58;;;;;;;1.80;0.80;;;;;;;20.45;74.65;102026.13;4972454;28;20148;-80
2022/07/14 09:25:28;;;;;;;4.35;0.90;;;;;;;20.47;74.96;102031.47;5006533;28;20057;-80
2022/07/14 09:27:57;;;;;;;3.40;1.00;;;;;;;20.41;74.66;102027.13;4991451;28;22941;-80
2022/07/14 09:30:28;;;;;;;1.67;0.70;;;;;;;20.39;74.84;102020.91;4979007;28;20053;-80
2022/07/14 09:32:56;;;;;;;1.98;0.82;;;;;;;20.31;74.62;102029.09;4968758;28;20534;-79
2022/07/14 09:35:27;;;;;;;3.80;0.90;;;;;;;20.24;75.21;102024.75;4971652;28;20491;-79
2022/07/14 09:37:56;;;;;;;4.95;1.40;;;;;;;20.22;75.59;102021.22;4991960;28;22036;-81
2022/07/14 09:40:31;;;;;;;2.67;1.02;;;;;;;20.24;75.34;102012.28;4998637;28;20053;-80
2022/07/14 09:43:05;;;;;;;3.67;0.93;;;;;;;20.35;74.92;102019.22;4975821;28;20069;-80
2022/07/14 09:45:36;;;;;;;2.15;1.08;;;;;;;20.31;75.22;102020.19;4978625;28;20635;-80
2022/07/14 09:48:09;;;;;;;2.85;0.82;;;;;;;20.32;75.84;102021.94;4954665;28;20046;-80
2022/07/14 09:50:47;;;;;;;3.05;0.93;;;;;;;20.36;76.39;102023.63;4957404;28;20160;-81
2022/07/14 09:53:31;;;;;;;2.08;0.77;;;;;;;20.41;75.65;102027.13;4979840;28;20072;-79
2022/07/14 09:56:18;;;;;;;2.88;0.73;;;;;;;20.49;76.07;102029.66;4996784;28;20049;-80
2022/07/14 09:58:52;;;;;;;2.28;0.50;;;;;;;20.60;75.52;102031.25;4980462;28;20037;-81
2022/07/14 10:01:24;;;;;;;1.58;0.90;;;;;;;20.63;74.95;102025.81;5004388;28;20073;-82
2022/07/14 10:03:55;;;;;;;0.88;0.63;;;;;;;20.62;75.38;102021.41;4933572;28;20066;-81
2022/07/14 10:06:27;;;;;;;2.20;0.90;;;;;;;20.61;75.56;102024.97;4989156;28;20049;-80
2022/07/14 10:09:08;;;;;;;2.92;0.70;;;;;;;20.59;75.14;102023.22;4974856;28;20034;-80
2022/07/14 10:11:37;;;;;;;2.72;0.80;;;;;;;20.64;74.01;102015.97;4974833;28;20042;-79
2022/07/14 10:14:07;;;;;;;4.72;0.80;;;;;;;20.68;73.57;102009.69;4973660;28;20541;-80
2022/07/14 10:16:36;;;;;;;0.75;0.60;;;;;;;20.71;71.72;102019.44;4980986;28;20056;-81
2022/07/14 10:19:05;;;;;;;1.38;0.70;;;;;;;20.78;72.45;102021.06;4964882;28;20171;-82
2022/07/14 10:21:43;;;;;;;2.85;0.80;;;;;;;20.86;72.35;102011.06;4959086;28;20085;-81
2022/07/14 10:24:12;;;;;;;1.73;0.70;;;;;;;20.81;73.21;102013.84;4979193;28;20057;-81
2022/07/14 10:26:42;;;;;;;2.50;0.70;;;;;;;20.80;73.71;102020.13;4985773;28;20045;-80
2022/07/14 10:29:10;;;;;;;2.10;0.70;;;;;;;20.80;73.72;102020.13;4970562;28;20034;-80
2022/07/14 10:31:51;;;;;;;1.90;0.85;;;;;;;20.77;74.13;102022.84;4985062;28;20058;-81
2022/07/14 10:34:54;;;;;;;5.05;0.75;;;;;;;20.78;72.38;102021.94;4995497;28;20050;-81
2022/07/14 10:38:04;;;;;;;1.05;0.68;;;;;;;20.93;73.31;102014.50;5009791;28;20134;-80
2022/07/14 10:41:02;;;;;;;1.67;0.80;;;;;;;21.00;73.45;102017.03;4969228;28;20054;-80
2022/07/14 10:44:01;;;;;;;1.23;0.60;;;;;;;20.92;72.69;102021.66;4990884;28;20046;-81
2022/07/14 10:46:42;;;;;;;1.90;0.65;;;;;;;20.83;73.42;102027.19;4981105;28;20098;-81
2022/07/14 10:49:15;;;;;;;3.00;0.80;;;;;;;20.76;74.30;102020.22;4987449;28;20034;-80
2022/07/14 10:51:53;;;;;;;2.10;0.80;;;;;;;20.73;73.29;102014.91;4945551;28;20055;-79
2022/07/14 10:54:21;;;;;;;1.45;0.70;;;;;;;20.71;74.09;102003.38;4983383;28;20062;-79
2022/07/14 10:57:14;;;;;;;1.95;0.70;;;;;;;20.64;73.81;102013.31;4979051;28;20386;-79
2022/07/14 10:59:46;;;;;;;3.28;0.77;;;;;;;20.56;73.42;102012.56;4981864;28;20049;-80
2022/07/14 11:02:15;;;;;;;1.90;0.80;;;;;;;20.51;74.02;102018.00;4985763;28;20389;-79
2022/07/14 11:04:57;;;;;;;3.92;1.05;;;;;;;20.49;74.65;102009.13;4985689;28;20511;-79
2022/07/14 11:07:46;;;;;;;;;;;;;;;20.52;75.02;102010.84;4955377;28;20053;-79
2022/07/14 11:10:19;;;;;;;1.75;0.77;;;;;;;20.49;74.66;102024.28;4994008;28;20302;-79
2022/07/14 11:13:02;;;;;;;3.80;0.60;;;;;;;20.51;74.32;102017.09;4969677;28;20046;-79
2022/07/14 11:15:42;;;;;;;2.35;0.70;;;;;;;20.44;72.07;102021.72;4969278;28;20038;-79
2022/07/14 11:18:17;;;;;;;2.13;0.75;;;;;;;20.38;73.13;102017.34;4977477;28;20416;-80
2022/07/14 11:20:47;;;;;;;2.83;0.82;;;;;;;20.32;73.29;102025.50;4974607;28;20051;-82
2022/07/14 11:23:21;;;;;;;1.80;0.80;;;;;;;20.28;73.35;102015.75;4955343;28;20072;-80
2022/07/14 11:25:52;;;;;;;2.25;0.80;;;;;;;20.24;74.64;102017.63;4971152;28;20054;-81
2022/07/14 11:28:43;;;;;;;3.42;0.60;;;;;;;20.29;75.61;102024.69;4973276;28;20617;-79
2022/07/14 11:31:11;;;;;;;3.40;0.70;;;;;;;20.35;76.02;102022.75;4966599;28;20327;-81
2022/07/14 11:36:34;;;;;;;2.20;0.80;;;;;;;20.48;75.95;102025.22;4976149;28;20123;-79
2022/07/14 11:39:23;;;;;;;2.90;0.80;;;;;;;20.41;76.46;102022.63;4950712;28;20045;-80
2022/07/14 11:42:07;;;;;;;4.45;0.90;;;;;;;20.47;77.30;102027.00;4983556;28;20105;-80
2022/07/14 11:44:36;;;;;;;2.78;0.90;;;;;;;20.66;76.19;102026.66;4977197;28;20061;-79
2022/07/14 11:47:16;;;;;;;1.05;0.65;;;;;;;20.89;75.86;102027.09;4969204;28;20039;-79
2022/07/14 11:50:00;;;;;;;3.67;0.75;;;;;;;20.90;74.46;102023.47;4984706;28;20050;-79
2022/07/14 11:52:40;;;;;;;1.38;0.70;;;;;;;20.89;75.09;102029.78;4984543;28;20515;-80
2022/07/14 11:55:12;;;;;;;4.18;1.05;;;;;;;20.95;73.91;102021.59;4980517;28;20038;-81
2022/07/14 11:57:53;;;;;;;2.75;0.90;;;;;;;21.07;73.83;102008.84;4984519;28;20051;-80
2022/07/14 12:00:22;;;;;;;2.95;0.90;;;;;;;21.15;73.72;102017.59;4973679;28;20522;-80